Time;durP1;ratioP1;P1;durP2;ratioP2;P2;SDS_P1;SDS_P2;PMS_P1;PMS_P2;Temp;Humidity;BMP_temperature;BMP_pressure;BME280_temperature;BME280_humidity;BME280_pressure;Samples;Min_cycle;Max_cycle;Signal;HPM_P1;HPM_P2
2022/03/10 00:01:20;;;;;;;18.00;14.17;;;;;;;0.77;nan;95214.34;5047439;28;20252;-72
2022/03/10 00:03:47;;;;;;;19.60;13.47;;;;;;;0.59;nan;95215.06;5046628;28;20202;-72
2022/03/10 00:06:14;;;;;;;19.00;12.87;;;;;;;0.49;nan;95212.50;5047878;28;20211;-72
2022/03/10 00:08:41;;;;;;;20.03;11.83;;;;;;;0.62;nan;95212.56;5046451;28;20210;-72
2022/03/10 00:11:09;;;;;;;18.43;12.47;;;;;;;0.63;nan;95214.25;5047999;28;20210;-72
2022/03/10 00:13:35;;;;;;;17.20;12.67;;;;;;;0.58;nan;95213.38;5047504;28;21123;-70
2022/03/10 00:16:02;;;;;;;14.87;12.40;;;;;;;0.67;nan;95203.44;5046431;28;20270;-72
2022/03/10 00:18:30;;;;;;;13.93;12.00;;;;;;;0.75;nan;95205.13;5046322;28;20203;-71
2022/03/10 00:20:57;;;;;;;17.33;12.33;;;;;;;0.78;nan;95205.16;5047251;28;20203;-73
2022/03/10 00:23:24;;;;;;;19.50;12.17;;;;;;;0.75;nan;95205.13;5046414;28;20249;-72
2022/03/10 00:25:51;;;;;;;18.03;12.27;;;;;;;0.64;nan;95198.41;5047165;28;20287;-71
2022/03/10 00:28:18;;;;;;;19.33;12.07;;;;;;;0.58;nan;95207.53;5046372;28;20264;-70
2022/03/10 00:30:45;;;;;;;18.00;11.87;;;;;;;0.52;nan;95202.50;5044301;28;20198;-71
2022/03/10 00:33:12;;;;;;;18.47;12.33;;;;;;;0.58;nan;95203.38;5044672;28;20248;-70
2022/03/10 00:35:40;;;;;;;13.97;11.47;;;;;;;0.76;nan;95209.31;5043139;28;20637;-70
2022/03/10 00:38:07;;;;;;;19.83;12.10;;;;;;;0.93;nan;95200.25;5044048;28;20229;-71
2022/03/10 00:40:34;;;;;;;18.97;12.83;;;;;;;1.04;nan;95203.66;5046206;28;20633;-71
2022/03/10 00:43:00;;;;;;;20.17;12.63;;;;;;;1.12;nan;95189.50;5048775;28;20201;-72
2022/03/10 00:45:27;;;;;;;15.27;11.53;;;;;;;1.17;nan;95189.53;5045914;28;20305;-73
2022/03/10 00:47:54;;;;;;;19.23;11.73;;;;;;;1.02;nan;95190.28;5045500;28;20202;-72
2022/03/10 00:50:23;;;;;;;15.10;12.13;;;;;;;0.72;nan;95190.13;5046473;28;20230;-73
2022/03/10 00:52:51;;;;;;;18.17;11.73;;;;;;;0.62;nan;95190.06;5046690;28;20201;-72
2022/03/10 00:55:18;;;;;;;17.70;11.97;;;;;;;0.68;nan;95190.13;5047122;28;20672;-72
2022/03/10 00:57:45;;;;;;;16.03;11.43;;;;;;;0.92;nan;95186.09;5046750;28;20230;-72
2022/03/10 01:00:13;;;;;;;17.47;12.30;;;;;;;1.00;nan;95186.94;5045431;28;20546;-72
2022/03/10 01:02:40;;;;;;;16.60;11.87;;;;;;;0.78;nan;95180.16;5046154;28;20198;-71
2022/03/10 01:05:08;;;;;;;15.97;11.63;;;;;;;0.53;nan;95187.50;5046372;28;20206;-72
2022/03/10 01:07:36;;;;;;;22.40;12.73;;;;;;;0.40;nan;95187.41;5047901;28;20190;-72
2022/03/10 01:10:06;;;;;;;20.30;13.73;;;;;;;0.32;nan;95189.84;5045408;28;20677;-71
2022/03/10 01:12:33;;;;;;;19.30;13.53;;;;;;;0.22;nan;95188.97;5045203;28;20207;-71
2022/03/10 01:15:00;;;;;;;18.83;13.07;;;;;;;-0.10;nan;95186.19;5045596;28;20486;-72
2022/03/10 01:17:27;;;;;;;18.73;13.07;;;;;;;-0.06;nan;95182.88;5046086;28;20303;-73
2022/03/10 01:19:53;;;;;;;19.63;13.17;;;;;;;0.11;nan;95182.19;5042902;28;20213;-72
2022/03/10 01:22:20;;;;;;;22.13;13.37;;;;;;;0.31;nan;95184.00;5044764;28;20222;-72
2022/03/10 01:24:47;;;;;;;20.37;12.53;;;;;;;0.46;nan;95183.31;5045192;28;20639;-71
2022/03/10 01:27:15;;;;;;;21.17;13.07;;;;;;;0.73;nan;95176.81;5044997;28;20197;-72
2022/03/10 01:29:42;;;;;;;21.93;13.47;;;;;;;0.42;nan;95175.75;5045065;28;20225;-71
2022/03/10 01:32:09;;;;;;;15.90;11.80;;;;;;;0.23;nan;95169.81;5044923;28;20202;-71
2022/03/10 01:34:36;;;;;;;17.10;12.63;;;;;;;0.46;nan;95172.47;5044371;28;20217;-70
2022/03/10 01:37:03;;;;;;;19.10;13.00;;;;;;;0.34;nan;95169.03;5044613;28;20230;-72
2022/03/10 01:39:32;;;;;;;15.67;12.27;;;;;;;0.59;nan;95164.19;5044208;28;20209;-72
2022/03/10 01:42:00;;;;;;;24.10;12.10;;;;;;;0.64;nan;95177.56;5044788;28;20202;-72
2022/03/10 01:44:28;;;;;;;17.67;12.97;;;;;;;0.98;nan;95176.13;5045153;28;20582;-71
2022/03/10 01:46:55;;;;;;;15.77;12.13;;;;;;;0.90;nan;95167.72;5044501;28;20194;-72
2022/03/10 01:49:22;;;;;;;21.27;14.03;;;;;;;0.72;nan;95175.13;5042485;28;20198;-72
2022/03/10 01:51:48;;;;;;;19.53;12.90;;;;;;;0.72;nan;95168.47;5045809;28;21817;-72
2022/03/10 01:54:15;;;;;;;19.60;13.80;;;;;;;0.56;nan;95165.00;5044911;28;20198;-72
2022/03/10 01:56:43;;;;;;;17.30;11.63;;;;;;;0.51;nan;95176.66;5044696;28;20761;-72
2022/03/10 01:59:10;;;;;;;15.87;12.13;;;;;;;0.70;nan;95166.78;5043801;28;20202;-70
2022/03/10 02:01:38;;;;;;;19.47;12.60;;;;;;;0.62;nan;95177.56;5043993;28;20669;-71
2022/03/10 02:04:05;;;;;;;18.33;12.90;;;;;;;0.41;nan;95184.94;5045593;28;20199;-71
2022/03/10 02:06:33;;;;;;;18.13;12.77;;;;;;;0.55;nan;95178.34;5044894;28;20194;-71
2022/03/10 02:11:44;;;;;;;24.23;14.33;;;;;;;0.77;nan;95174.31;5045164;28;20290;-72
2022/03/10 02:19:41;;;;;;;23.20;14.93;;;;;;;0.47;nan;95181.66;5046782;28;20262;-72
2022/03/10 02:22:11;;;;;;;22.00;14.43;;;;;;;0.71;nan;95175.97;5047029;28;20408;-72
2022/03/10 02:24:39;;;;;;;22.47;12.80;;;;;;;0.89;nan;95179.41;5046488;28;20206;-72
2022/03/10 02:27:18;;;;;;;24.47;13.70;;;;;;;0.98;nan;95181.13;5048302;28;20199;-71
2022/03/10 02:29:45;;;;;;;18.87;12.67;;;;;;;1.03;nan;95181.94;5047569;28;20205;-72
2022/03/10 02:32:12;;;;;;;21.10;13.13;;;;;;;1.10;nan;95185.31;5048573;28;20259;-72
2022/03/10 02:34:40;;;;;;;19.03;13.53;;;;;;;0.66;nan;95185.94;5048272;28;20206;-74
2022/03/10 02:37:08;;;;;;;20.50;14.07;;;;;;;0.90;nan;95190.25;5049333;28;20230;-72
2022/03/10 02:39:36;;;;;;;22.30;12.70;;;;;;;0.64;nan;95187.59;5047857;28;20186;-71
2022/03/10 02:42:03;;;;;;;22.03;14.73;;;;;;;0.61;nan;95182.56;5048153;28;20202;-71
2022/03/10 02:44:31;;;;;;;26.83;15.87;;;;;;;0.26;nan;95192.28;5048876;28;20793;-72
2022/03/10 02:46:58;;;;;;;31.60;15.87;;;;;;;0.07;nan;95197.97;5049655;28;20694;-72
2022/03/10 02:49:24;;;;;;;27.27;16.00;;;;;;;0.30;nan;95191.50;5048251;28;22141;-73
2022/03/10 02:51:51;;;;;;;25.77;15.13;;;;;;;0.28;nan;95195.66;5049402;28;20209;-73
2022/03/10 02:54:18;;;;;;;22.33;14.83;;;;;;;0.34;nan;95195.69;5049454;28;20203;-72
2022/03/10 02:56:47;;;;;;;28.93;14.63;;;;;;;0.41;nan;95197.44;5043818;28;20229;-73
2022/03/10 02:59:13;;;;;;;21.43;14.57;;;;;;;0.56;nan;95195.03;5042923;28;20224;-72
2022/03/10 03:01:40;;;;;;;19.37;13.17;;;;;;;0.16;nan;95203.06;5050575;28;20648;-72
2022/03/10 03:04:07;;;;;;;21.10;13.47;;;;;;;0.00;nan;95207.09;5052250;28;20210;-72
2022/03/10 03:06:34;;;;;;;21.43;13.60;;;;;;;-0.08;nan;95214.50;5049556;28;20693;-71
2022/03/10 03:09:01;;;;;;;20.50;12.70;;;;;;;-0.35;nan;95209.25;5049468;28;20248;-72
2022/03/10 03:11:28;;;;;;;20.70;11.97;;;;;;;-0.53;nan;95204.91;5050150;28;20209;-72
2022/03/10 03:13:56;;;;;;;20.07;12.37;;;;;;;-0.49;nan;95210.72;5049887;28;20199;-71
2022/03/10 03:16:24;;;;;;;18.73;11.33;;;;;;;-0.35;nan;95215.06;5048573;28;20297;-73
2022/03/10 03:18:52;;;;;;;19.40;12.27;;;;;;;-0.20;nan;95218.53;5049632;28;20228;-70
2022/03/10 03:21:19;;;;;;;15.80;11.73;;;;;;;-0.42;nan;95207.50;5049992;28;20275;-71
2022/03/10 03:23:46;;;;;;;14.53;10.73;;;;;;;-0.79;nan;95212.06;5050090;28;21205;-71
2022/03/10 03:26:13;;;;;;;15.50;11.33;;;;;;;-0.86;nan;95220.31;5050153;28;20203;-71
2022/03/10 03:28:40;;;;;;;15.60;11.43;;;;;;;-1.02;nan;95218.44;5049173;28;20932;-71
2022/03/10 03:31:09;;;;;;;17.87;10.60;;;;;;;-1.02;nan;95230.06;5047693;28;20617;-73
2022/03/10 03:33:36;;;;;;;15.87;10.97;;;;;;;-1.25;nan;95229.75;5050242;28;20202;-71
2022/03/10 03:36:03;;;;;;;15.17;9.13;;;;;;;-1.37;nan;95221.28;5050336;28;20202;-72
2022/03/10 03:38:30;;;;;;;12.83;9.10;;;;;;;-1.17;nan;95220.72;5046256;28;21822;-71
2022/03/10 03:40:58;;;;;;;10.40;8.57;;;;;;;-0.97;nan;95231.78;5048514;28;20201;-74
2022/03/10 03:43:25;;;;;;;9.40;7.73;;;;;;;-0.84;nan;95227.81;5048055;28;20841;-73
2022/03/10 03:45:52;;;;;;;8.97;7.57;;;;;;;-0.68;nan;95225.50;5049917;28;20206;-73
2022/03/10 03:48:20;;;;;;;8.07;6.47;;;;;;;-0.97;nan;95225.97;5048998;28;20557;-71
2022/03/10 03:50:47;;;;;;;6.30;5.57;;;;;;;-1.19;nan;95222.34;5039524;28;20798;-75
2022/03/10 03:53:13;;;;;;;6.97;5.53;;;;;;;-1.53;nan;95226.03;5032998;28;20229;-71
2022/03/10 03:55:40;;;;;;;6.30;5.70;;;;;;;-1.51;nan;95237.69;5032486;28;20242;-72
2022/03/10 03:58:07;;;;;;;6.27;5.67;;;;;;;-1.30;nan;95237.16;5031223;28;20227;-71
2022/03/10 04:00:34;;;;;;;9.77;6.40;;;;;;;-1.22;nan;95239.75;5031688;28;20582;-72
2022/03/10 04:03:08;;;;;;;6.67;5.93;;;;;;;-1.28;nan;95250.50;5029650;28;20248;-72
2022/03/10 04:05:37;;;;;;;7.30;5.83;;;;;;;-1.22;nan;95245.56;5032846;28;20210;-71
2022/03/10 04:08:04;;;;;;;5.53;5.03;;;;;;;-1.15;nan;95249.84;5029087;28;20195;-72
2022/03/10 04:10:31;;;;;;;7.80;5.70;;;;;;;-1.22;nan;95249.72;5028257;28;20207;-73
2022/03/10 04:12:58;;;;;;;8.20;5.50;;;;;;;-1.23;nan;95253.03;5029150;28;20226;-71
2022/03/10 04:15:25;;;;;;;5.67;5.17;;;;;;;-1.24;nan;95257.22;5028302;28;20203;-72
2022/03/10 04:17:52;;;;;;;6.27;5.30;;;;;;;-1.74;nan;95253.94;5029953;28;20230;-71
2022/03/10 04:20:19;;;;;;;6.77;5.30;;;;;;;-1.77;nan;95248.91;5030384;28;20260;-72
2022/03/10 04:22:47;;;;;;;5.90;5.30;;;;;;;-1.61;nan;95257.44;5029126;28;20257;-73
2022/03/10 04:25:14;;;;;;;10.50;5.83;;;;;;;-1.71;nan;95248.97;5029975;28;20268;-71
2022/03/10 04:27:41;;;;;;;6.53;5.70;;;;;;;-1.17;nan;95258.13;5028732;28;20748;-72
2022/03/10 04:30:09;;;;;;;8.20;5.83;;;;;;;-1.28;nan;95259.63;5027401;28;20291;-72
2022/03/10 04:32:43;;;;;;;5.87;5.27;;;;;;;-1.31;nan;95257.94;5035434;28;20274;-73
2022/03/10 04:35:13;;;;;;;6.40;5.73;;;;;;;-1.46;nan;95257.69;5036941;28;20314;-73
2022/03/10 04:37:39;;;;;;;8.17;6.57;;;;;;;-1.29;nan;95263.78;5025908;28;20285;-74
2022/03/10 04:40:11;;;;;;;6.10;5.50;;;;;;;-1.50;nan;95263.44;5031764;28;20207;-74
2022/03/10 04:42:39;;;;;;;5.10;4.60;;;;;;;-1.37;nan;95265.31;5030329;28;20317;-73
2022/03/10 04:45:07;;;;;;;5.37;4.73;;;;;;;-1.58;nan;95265.81;5030555;28;20200;-73
2022/03/10 04:47:34;;;;;;;5.23;4.73;;;;;;;-1.51;nan;95270.09;5029151;28;20207;-73
2022/03/10 04:50:01;;;;;;;6.90;4.43;;;;;;;-1.72;nan;95274.69;5036661;28;20245;-73
2022/03/10 04:52:28;;;;;;;7.07;5.10;;;;;;;-1.90;nan;95284.38;5048791;28;20552;-72
2022/03/10 04:54:55;;;;;;;5.37;4.87;;;;;;;-1.95;nan;95288.41;5048267;28;21119;-73
2022/03/10 04:57:24;;;;;;;5.03;4.20;;;;;;;-1.72;nan;95292.97;5047714;28;20206;-72
2022/03/10 04:59:51;;;;;;;7.80;4.80;;;;;;;-1.94;nan;95285.13;5046120;28;20198;-72
2022/03/10 05:02:17;;;;;;;6.20;5.20;;;;;;;-1.86;nan;95294.41;5048158;28;20943;-74
2022/03/10 05:04:44;;;;;;;8.80;5.37;;;;;;;-1.45;nan;95300.06;5049197;28;20202;-75
2022/03/10 05:07:11;;;;;;;5.70;5.07;;;;;;;-1.52;nan;95309.94;5049464;28;20255;-72
2022/03/10 05:09:38;;;;;;;6.90;6.03;;;;;;;-1.52;nan;95315.75;5049071;28;20592;-73
2022/03/10 05:12:06;;;;;;;6.60;6.00;;;;;;;-1.60;nan;95319.78;5047816;28;20221;-74
2022/03/10 05:14:34;;;;;;;7.03;5.30;;;;;;;-1.29;nan;95322.78;5050022;28;20199;-72
2022/03/10 05:17:02;;;;;;;6.77;5.73;;;;;;;-0.97;nan;95324.06;5049126;28;20753;-75
2022/03/10 05:19:29;;;;;;;5.50;4.97;;;;;;;-0.16;nan;95325.97;5050053;28;20237;-72
2022/03/10 05:21:55;;;;;;;10.50;6.13;;;;;;;1.01;nan;95334.59;5049339;28;20207;-75
2022/03/10 05:24:22;;;;;;;7.83;6.77;;;;;;;1.65;nan;95324.13;5049385;28;20205;-74
2022/03/10 05:26:49;;;;;;;16.30;9.90;;;;;;;2.21;nan;95333.56;5049427;28;20233;-72
2022/03/10 05:29:16;;;;;;;6.00;5.40;;;;;;;2.07;nan;95337.66;5047227;28;20548;-73
2022/03/10 05:31:44;;;;;;;6.07;5.23;;;;;;;2.73;nan;95347.84;5048627;28;20352;-72
2022/03/10 05:34:11;;;;;;;7.77;5.30;;;;;;;2.49;nan;95357.84;5048422;28;20317;-72
2022/03/10 05:36:37;;;;;;;6.30;5.70;;;;;;;2.02;nan;95357.69;5047593;28;20293;-75
2022/03/10 05:39:05;;;;;;;7.50;6.53;;;;;;;1.91;nan;95362.69;5047976;28;20342;-74
2022/03/10 05:41:33;;;;;;;6.97;5.77;;;;;;;1.45;nan;95360.78;5051792;28;20259;-75
2022/03/10 05:44:00;;;;;;;7.27;5.80;;;;;;;0.95;nan;95363.75;5048428;28;20631;-74
2022/03/10 05:46:26;;;;;;;6.53;5.93;;;;;;;0.43;nan;95365.78;5050880;28;20202;-73
2022/03/10 05:48:55;;;;;;;6.03;5.50;;;;;;;-0.22;nan;95365.88;5051609;28;20291;-72
2022/03/10 05:51:22;;;;;;;6.90;5.53;;;;;;;-0.40;nan;95363.97;5038016;28;21187;-71
2022/03/10 05:53:50;;;;;;;6.23;5.53;;;;;;;0.41;nan;95354.94;5034671;28;20717;-71
2022/03/10 05:56:17;;;;;;;6.87;6.17;;;;;;;2.59;nan;95368.75;5034661;28;20260;-74
2022/03/10 05:58:44;;;;;;;6.37;5.73;;;;;;;3.66;nan;95364.56;5034757;28;20298;-74
2022/03/10 06:01:14;;;;;;;7.90;5.53;;;;;;;4.81;nan;95368.22;5035086;28;20681;-74
2022/03/10 06:03:42;;;;;;;7.90;5.77;;;;;;;4.42;nan;95364.28;5033493;28;20242;-73
2022/03/10 06:06:12;;;;;;;6.37;5.77;;;;;;;5.12;nan;95373.91;5035728;28;20757;-72
2022/03/10 06:08:39;;;;;;;7.17;6.37;;;;;;;5.75;nan;95362.38;5033766;28;20289;-74
2022/03/10 06:11:07;;;;;;;6.57;5.83;;;;;;;5.62;nan;95365.06;5038690;28;20614;-74
2022/03/10 06:13:34;;;;;;;8.57;6.67;;;;;;;5.53;nan;95368.50;5035642;28;20248;-73
2022/03/10 06:16:02;;;;;;;13.93;6.25;;;;;;;6.07;nan;95371.34;5038303;28;20507;-73
2022/03/10 06:18:29;;;;;;;7.53;6.82;;;;;;;7.80;nan;95370.47;5036312;28;20234;-74
2022/03/10 06:20:56;;;;;;;10.63;6.50;;;;;;;8.34;nan;95372.88;5035676;28;20207;-73
2022/03/10 06:23:25;;;;;;;7.90;7.10;;;;;;;9.46;nan;95360.22;5037167;28;20206;-72
2022/03/10 06:25:51;;;;;;;10.33;6.50;;;;;;;9.14;nan;95362.69;5037795;28;20866;-74
2022/03/10 06:28:18;;;;;;;7.93;6.25;;;;;;;9.54;nan;95368.47;5035521;28;20261;-74
2022/03/10 06:30:45;;;;;;;7.18;6.53;;;;;;;9.14;nan;95377.91;5038706;28;20206;-73
2022/03/10 06:33:12;;;;;;;11.93;6.55;;;;;;;8.26;nan;95372.97;5034555;28;20226;-72
2022/03/10 06:35:39;;;;;;;7.45;6.68;;;;;;;9.36;nan;95379.06;5034167;28;20210;-72
2022/03/10 06:38:06;;;;;;;5.65;5.15;;;;;;;10.00;nan;95377.44;5033796;28;20725;-73
2022/03/10 06:40:35;;;;;;;6.88;6.18;;;;;;;8.85;nan;95387.00;5034065;28;20203;-73
2022/03/10 06:43:02;;;;;;;8.55;6.30;;;;;;;10.35;nan;95383.34;5033596;28;20631;-73
2022/03/10 06:45:28;;;;;;;5.70;5.15;;;;;;;10.39;nan;95384.91;5033180;28;20675;-74
2022/03/10 06:47:55;;;;;;;9.98;6.15;;;;;;;10.27;nan;95396.22;5033390;28;20199;-73
2022/03/10 06:50:22;;;;;;;4.63;4.22;;;;;;;10.53;nan;95392.97;5042907;28;20697;-74
2022/03/10 06:52:51;;;;;;;4.10;3.65;;;;;;;10.13;nan;95400.84;5056281;28;20202;-74
2022/03/10 06:55:19;;;;;;;5.82;4.07;;;;;;;9.67;nan;95401.97;5054794;28;20225;-74
2022/03/10 06:57:47;;;;;;;4.63;3.65;;;;;;;10.25;nan;95404.75;5053476;28;20313;-74
2022/03/10 07:00:14;;;;;;;3.17;2.97;;;;;;;9.52;nan;95400.66;5054676;28;20229;-73
2022/03/10 07:02:41;;;;;;;4.13;3.13;;;;;;;10.40;nan;95406.88;5051765;28;20206;-73
2022/03/10 07:05:08;;;;;;;5.05;4.50;;;;;;;12.24;nan;95412.22;5055144;28;20287;-73
2022/03/10 07:07:35;;;;;;;5.97;5.35;;;;;;;12.78;nan;95408.59;5052792;28;20609;-72
2022/03/10 07:10:03;;;;;;;6.15;4.65;;;;;;;11.85;nan;95416.09;5052607;28;20199;-73
2022/03/10 07:12:30;;;;;;;5.72;3.92;;;;;;;10.48;nan;95415.13;5054031;28;20295;-73
2022/03/10 07:14:58;;;;;;;5.07;4.57;;;;;;;10.86;nan;95412.38;5052120;28;20210;-73
2022/03/10 07:17:25;;;;;;;4.88;4.47;;;;;;;12.11;nan;95410.97;5053782;28;20218;-73
2022/03/10 07:19:52;;;;;;;7.53;4.80;;;;;;;12.39;nan;95425.28;5055809;28;20230;-72
2022/03/10 07:22:19;;;;;;;6.10;5.25;;;;;;;12.39;nan;95412.56;5050618;28;20226;-74
2022/03/10 07:24:46;;;;;;;4.47;4.07;;;;;;;12.38;nan;95421.09;5053855;28;20204;-74
2022/03/10 07:27:13;;;;;;;4.45;4.15;;;;;;;14.17;nan;95414.19;5052947;28;20705;-74
2022/03/10 07:29:40;;;;;;;4.25;3.95;;;;;;;14.02;nan;95424.22;5051168;28;20632;-73
2022/03/10 07:32:09;;;;;;;3.95;3.65;;;;;;;12.24;nan;95422.41;5052709;28;20810;-74
2022/03/10 07:34:36;;;;;;;5.60;4.25;;;;;;;11.86;nan;95418.59;5054957;28;20197;-73
2022/03/10 07:37:03;;;;;;;6.85;4.80;;;;;;;12.01;nan;95429.16;5053432;28;20239;-73
2022/03/10 07:39:30;;;;;;;4.53;4.13;;;;;;;15.73;nan;95409.78;5052665;28;20229;-74
2022/03/10 07:41:57;;;;;;;4.53;4.03;;;;;;;17.92;nan;95411.09;5051958;28;20920;-73
2022/03/10 07:44:25;;;;;;;4.05;3.72;;;;;;;18.27;nan;95417.66;5050792;28;20213;-73
2022/03/10 07:46:52;;;;;;;4.75;3.70;;;;;;;13.69;nan;95426.41;5054017;28;20194;-73
2022/03/10 07:49:20;;;;;;;4.75;4.22;;;;;;;10.79;nan;95431.19;5051230;28;20287;-73
2022/03/10 07:51:47;;;;;;;4.45;4.05;;;;;;;8.31;nan;95441.28;5054056;28;20197;-73
2022/03/10 07:54:14;;;;;;;4.40;4.00;;;;;;;7.32;nan;95437.88;5051177;28;20287;-73
2022/03/10 07:56:41;;;;;;;4.97;4.57;;;;;;;6.53;nan;95446.53;5050531;28;20222;-74
2022/03/10 07:59:09;;;;;;;3.95;3.55;;;;;;;7.12;nan;95450.81;5051243;28;20226;-74
2022/03/10 08:01:38;;;;;;;4.75;3.30;;;;;;;5.78;nan;95462.41;5051392;28;20304;-74
2022/03/10 08:04:05;;;;;;;4.93;2.78;;;;;;;4.80;nan;95452.16;5049617;28;20206;-73
2022/03/10 08:06:34;;;;;;;3.77;3.23;;;;;;;4.89;nan;95456.31;5050875;28;20210;-74
2022/03/10 08:09:02;;;;;;;6.43;2.70;;;;;;;4.24;nan;95472.50;5050907;28;20206;-73
2022/03/10 08:11:28;;;;;;;3.60;3.30;;;;;;;3.41;nan;95455.03;5050962;28;20206;-73
2022/03/10 08:13:55;;;;;;;3.37;2.70;;;;;;;3.06;nan;95457.50;5051234;28;20244;-73
2022/03/10 08:16:22;;;;;;;3.33;3.03;;;;;;;3.21;nan;95465.91;5048980;28;20665;-72
2022/03/10 08:18:49;;;;;;;4.43;4.03;;;;;;;3.70;nan;95456.72;5048542;28;20256;-73
2022/03/10 08:21:16;;;;;;;3.50;3.20;;;;;;;3.82;nan;95459.19;5051645;28;20715;-71
2022/03/10 08:23:44;;;;;;;3.60;3.30;;;;;;;3.56;nan;95458.38;5049429;28;20213;-74
2022/03/10 08:26:11;;;;;;;3.87;3.50;;;;;;;2.94;nan;95460.00;5049768;28;20229;-71
2022/03/10 08:28:38;;;;;;;3.40;3.10;;;;;;;2.39;nan;95477.38;5051017;28;20198;-74
2022/03/10 08:31:13;;;;;;;2.90;2.70;;;;;;;1.92;44.28;95472.13;5042973;27;20587;-71
2022/03/10 08:33:40;;;;;;;3.80;3.50;;;;;;;1.76;46.50;95477.84;5054228;27;20190;-72
2022/03/10 08:36:07;;;;;;;7.87;3.60;;;;;;;2.05;45.54;95478.88;5043191;27;20203;-73
2022/03/10 08:38:35;;;;;;;9.33;2.90;;;;;;;2.69;44.33;95476.69;5041352;27;20927;-72
2022/03/10 08:41:02;;;;;;;3.23;2.93;;;;;;;2.99;43.13;95460.00;5060645;27;20275;-74
2022/03/10 08:43:31;;;;;;;3.10;2.80;;;;;;;3.46;41.47;95461.75;5064130;27;20252;-72
2022/03/10 08:45:58;;;;;;;3.57;2.43;;;;;;;3.21;41.72;95471.78;5061207;27;20205;-72
2022/03/10 08:48:26;;;;;;;3.10;2.10;;;;;;;2.70;43.43;95468.31;5066255;27;20206;-73
2022/03/10 08:50:53;;;;;;;3.17;2.93;;;;;;;2.39;43.42;95476.56;5055871;27;20231;-72
2022/03/10 08:53:20;;;;;;;2.70;2.57;;;;;;;2.93;42.69;95475.06;5067505;27;20199;-73
2022/03/10 08:55:46;;;;;;;4.60;2.43;;;;;;;2.48;41.99;95476.56;5046901;27;20247;-72
2022/03/10 08:58:13;;;;;;;3.63;2.90;;;;;;;2.59;42.35;95474.13;5053664;27;20202;-72
2022/03/10 09:00:40;;;;;;;4.13;2.33;;;;;;;2.85;41.45;95476.72;5073244;27;20200;-72
2022/03/10 09:03:08;;;;;;;2.90;2.43;;;;;;;2.36;41.90;95466.50;5053685;27;20207;-71
2022/03/10 09:05:37;;;;;;;2.57;2.33;;;;;;;3.80;38.89;95458.34;5059744;27;20742;-73
2022/03/10 09:08:05;;;;;;;8.20;2.50;;;;;;;4.88;36.50;95462.22;5059097;27;20255;-74
2022/03/10 09:10:32;;;;;;;2.37;2.27;;;;;;;4.53;36.04;95468.22;5050426;27;20250;-73
2022/03/10 09:12:59;;;;;;;2.40;2.20;;;;;;;3.15;38.73;95464.22;5044148;27;20734;-73
2022/03/10 09:15:27;;;;;;;2.20;2.10;;;;;;;3.21;37.58;95458.38;5042949;27;21508;-73
2022/03/10 09:17:53;;;;;;;2.60;2.40;;;;;;;3.75;36.59;95470.09;5064698;27;20209;-72
2022/03/10 09:20:21;;;;;;;2.60;2.10;;;;;;;4.36;34.99;95462.44;5049476;27;20826;-72
2022/03/10 09:22:50;;;;;;;3.83;2.00;;;;;;;5.15;32.55;95449.44;5050496;27;20210;-71
2022/03/10 09:25:17;;;;;;;3.67;2.17;;;;;;;4.92;32.89;95467.22;5053794;27;20299;-71
2022/03/10 09:27:44;;;;;;;1.90;1.80;;;;;;;4.90;33.51;95452.97;5048730;27;20199;-72
2022/03/10 09:30:13;;;;;;;2.17;1.97;;;;;;;6.17;32.70;95442.75;5042804;27;20977;-72
2022/03/10 09:32:42;;;;;;;2.13;2.03;;;;;;;8.09;30.58;95454.31;5052689;27;20208;-72
2022/03/10 09:35:11;;;;;;;2.30;2.10;;;;;;;6.42;29.86;95451.72;5065340;27;20662;-72
2022/03/10 09:37:38;;;;;;;1.67;1.57;;;;;;;5.50;31.29;95448.34;5055766;27;20270;-72
2022/03/10 09:40:08;;;;;;;2.10;2.00;;;;;;;4.77;32.66;95447.13;5046656;27;20202;-71
2022/03/10 09:42:36;;;;;;;2.60;2.40;;;;;;;4.58;34.13;95453.94;5028616;27;20200;-73
2022/03/10 09:45:07;;;;;;;2.30;2.10;;;;;;;5.15;35.79;95457.00;5030852;27;20602;-71
2022/03/10 09:47:35;;;;;;;4.43;2.10;;;;;;;5.67;35.76;95454.09;5032588;27;20211;-72
2022/03/10 09:50:04;;;;;;;2.80;2.60;;;;;;;5.12;35.30;95460.38;5045412;27;20234;-72
2022/03/10 09:52:32;;;;;;;3.27;1.73;;;;;;;5.07;35.04;95461.25;5033545;27;20746;-72
2022/03/10 09:54:59;;;;;;;6.07;1.80;;;;;;;3.59;35.27;95454.19;5050704;27;20204;-70
2022/03/10 09:57:28;;;;;;;5.00;1.95;;;;;;;4.06;36.71;95459.16;5034312;27;20638;-70
2022/03/10 09:59:58;;;;;;;2.07;1.97;;;;;;;3.83;35.72;95458.34;5048488;27;20211;-71
2022/03/10 10:02:27;;;;;;;2.78;2.58;;;;;;;3.88;37.02;95453.31;5041751;27;20200;-72
2022/03/10 10:04:54;;;;;;;2.37;2.10;;;;;;;3.54;35.24;95460.88;5028192;27;20204;-70
2022/03/10 10:07:22;;;;;;;8.97;4.57;;;;;;;3.57;36.20;95465.91;5031752;27;21998;-71
2022/03/10 10:09:53;;;;;;;2.30;2.20;;;;;;;2.53;34.46;95471.56;5035172;27;20614;-70
2022/03/10 10:12:22;;;;;;;2.10;2.00;;;;;;;2.72;36.48;95471.63;5028667;27;20214;-71
2022/03/10 10:14:51;;;;;;;2.90;2.10;;;;;;;3.61;35.66;95461.72;5025842;27;20271;-71
2022/03/10 10:17:26;;;;;;;2.23;2.03;;;;;;;3.67;35.74;95469.28;5042771;27;20244;-71
2022/03/10 10:19:55;;;;;;;2.30;2.10;;;;;;;3.82;36.22;95471.75;5046583;27;20203;-71
2022/03/10 10:22:23;;;;;;;3.17;2.70;;;;;;;3.57;36.05;95463.41;5042240;27;20227;-72
2022/03/10 10:24:51;;;;;;;2.27;2.07;;;;;;;3.65;36.58;95475.97;5035075;27;20206;-72
2022/03/10 10:27:20;;;;;;;6.23;2.63;;;;;;;3.72;36.87;95470.09;5027407;27;20192;-72
2022/03/10 10:29:50;;;;;;;5.73;3.07;;;;;;;3.85;37.82;95473.44;5028495;28;20242;-73
2022/03/10 10:32:31;;;;;;;2.83;2.63;;;;;;;4.05;37.55;95475.06;5028333;28;20188;-73
2022/03/10 10:35:09;;;;;;;5.45;2.92;;;;;;;3.87;35.52;95475.13;5028052;28;20683;-73
2022/03/10 10:37:37;;;;;;;2.50;2.30;;;;;;;3.53;35.13;95478.47;5028335;28;20233;-74
2022/03/10 10:40:06;;;;;;;2.80;2.60;;;;;;;3.94;36.40;95470.91;5028989;28;20261;-72
2022/03/10 10:42:35;;;;;;;3.17;2.87;;;;;;;4.18;35.07;95472.56;5026388;28;20200;-72
2022/03/10 10:45:30;;;;;;;2.07;1.97;;;;;;;3.22;35.73;95475.94;5026507;28;20260;-73
2022/03/10 10:48:01;;;;;;;4.70;2.10;;;;;;;3.13;37.02;95465.91;5028808;28;20203;-73
2022/03/10 10:50:31;;;;;;;3.57;2.83;;;;;;;3.23;37.92;95461.69;5028087;28;20223;-71
2022/03/10 10:52:58;;;;;;;2.30;2.20;;;;;;;3.65;36.79;95445.81;5027636;28;20591;-72
2022/03/10 10:55:32;;;;;;;3.50;2.10;;;;;;;3.70;37.59;95456.72;5028466;28;20218;-75
2022/03/10 10:58:05;;;;;;;4.10;3.20;;;;;;;3.39;37.90;95461.72;5026089;28;20199;-72
2022/03/10 11:00:43;;;;;;;2.23;2.10;;;;;;;3.50;37.23;95458.38;5026544;28;20200;-72
2022/03/10 11:03:24;;;;;;;3.87;2.53;;;;;;;3.20;37.50;95460.06;5026185;28;20200;-72
2022/03/10 11:05:52;;;;;;;2.70;2.50;;;;;;;3.55;38.60;95451.66;5027068;28;20198;-72
2022/03/10 11:08:20;;;;;;;3.47;3.23;;;;;;;3.29;37.47;95456.69;5027350;28;20200;-73
2022/03/10 11:10:48;;;;;;;2.40;2.30;;;;;;;3.24;38.00;95451.66;5026996;28;20259;-73
2022/03/10 11:13:16;;;;;;;3.30;3.00;;;;;;;2.82;38.55;95451.59;5028608;28;20260;-74
2022/03/10 11:15:45;;;;;;;2.50;2.27;;;;;;;2.29;39.32;95434.69;5027816;28;20633;-72
2022/03/10 11:18:14;;;;;;;2.30;2.20;;;;;;;2.54;40.30;95460.72;5027464;28;20203;-73
2022/03/10 11:20:43;;;;;;;3.87;2.60;;;;;;;2.90;40.18;95453.31;5027433;28;20188;-73
2022/03/10 11:23:21;;;;;;;2.27;2.10;;;;;;;3.01;39.06;95450.78;5027181;28;20199;-72
2022/03/10 11:25:54;;;;;;;2.47;2.27;;;;;;;2.96;40.29;95465.03;5027738;28;20211;-71
2022/03/10 11:28:25;;;;;;;8.07;3.50;;;;;;;3.61;41.63;95456.69;5028103;28;20248;-72
2022/03/10 11:30:56;;;;;;;2.63;2.43;;;;;;;3.69;40.55;95450.00;5027700;28;20513;-75
2022/03/10 11:33:30;;;;;;;2.70;2.50;;;;;;;3.59;41.61;95463.41;5027538;28;20196;-71
2022/03/10 11:35:58;;;;;;;2.47;2.27;;;;;;;3.06;40.22;95459.19;5027593;28;20676;-71
2022/03/10 11:38:49;;;;;;;3.20;3.00;;;;;;;2.96;41.73;95463.38;5027487;28;20200;-73
2022/03/10 11:41:16;;;;;;;2.83;2.53;;;;;;;2.66;43.03;95476.66;5028139;28;20199;-72
2022/03/10 11:43:56;;;;;;;2.87;2.53;;;;;;;2.50;43.43;95471.56;5027067;28;20203;-72
2022/03/10 11:46:26;;;;;;;15.20;2.70;;;;;;;2.20;44.37;95490.69;5027793;28;20231;-73
2022/03/10 11:49:11;;;;;;;3.10;2.90;;;;;;;1.94;44.78;95485.50;5027868;28;20286;-72
2022/03/10 11:51:43;;;;;;;3.23;3.03;;;;;;;1.70;46.04;95482.84;5027100;28;20319;-72
2022/03/10 11:54:11;;;;;;;2.97;2.70;;;;;;;1.92;44.93;95488.84;5027524;28;20231;-73
2022/03/10 11:57:06;;;;;;;4.57;2.57;;;;;;;1.69;42.67;95482.00;5027446;28;20216;-72
2022/03/10 11:59:47;;;;;;;4.13;2.97;;;;;;;2.14;42.92;95479.75;5027283;28;20196;-73